Current Weather

Platteville Muni

Platteville, Wisconsin (KPVB)

Report from: Tuesday, April 23, 2024 2:15 AM CDT
Current time: Tuesday, April 23, 2024 2:33 AM CDT

Nearby weather – Weather history – Daily summaries
Weather forecast

Temperature12.6°C (54.7°F)
Dew point2.9°C (37.2°F)
Winds 13 kts (6.7 m/s, 15 mph) Southwest (220°)
Wind gusts 19 kts (9.8 m/s, 21.9 mph)
Visibility10 mi. (16.1 km)
Clouds Ceiling: Broken clouds 11,000 ft. (3,353 m)
Altimeter29.71 in.Hg (1006 mB)
Relative humidity52 %
Density altitude70 ft. (21 m)
Remarks Fully automated report
Automated weather observing station without precipitation discriminator
Flight conditions Visual Meteorological Conditions
Raw dataKPVB 230715Z AUTO 22013G19KT 10SM BKN110 13/03 A2971 RMK AO1 T01260029
An error has occurred. This application may no longer respond until reloaded. Reload 🗙